Albany, New York
Traffic Map
Current Weather Conditions
Albany, New York
Broken Clouds
Broken Clouds
83°
Feels Like: 83°
Wind Chill: 83° Ceiling: 26000
Heat Index: 83° Visibility: 10mi
Dew Point: 51° Wind: 9mph
Humidity: 33% Direction: 180° (S)
Pressure: 30.22in Gusts: 0mph
Raw Report DataKALB 291951Z 18008KT 10SM FEW060 SCT240 BKN260 28/11 A3022 RMK AO2 SLP231 T02830106
Traffic Incident Summary
Active as of:
Severity:
Category:
InformationThere was an issue retrieving the traffic information for this location. Please try a different location or try again shortly.
Advertisements
Track Severe Weather on mobile